首页
METAR-TAF:

METAR-TAF

机场 :

科隆/波恩機場

科隆, 德国

纬度: 50-52N, 经度: 007-10E, 海拔: 91米

当前天气观测

该预报发布于21分钟前的11:50 UTC
风速7节,风向南转南东
温度 14°C
湿度 67%
气压 1010 hPa
能见度10公里或以上
少量云层高于3000英尺

METAR: EDDK 281150Z 16007KT 9999 FEW030 14/08 Q1010 NOSIG

时间: 14:11 (12:11 UTC)

预报

该预报发布于1小时和11分钟前的11:00 UTC
预报有效从28日的 12点(UTC)到 29日的 18点(UTC)
风速6节,风向东南
能见度10公里或以上
多云层高于4500英尺
短暂存在
从 29日的 04点(UTC)到 29日的 11点(UTC)
多云层高于1200英尺
几率 30% :
短暂存在
从 29日的 07点(UTC)到 29日的 10点(UTC)
能見度: 4000
多云层高于600英尺
雨, 毛毛雨
成为
从 29日的 08点(UTC)到 29日的 11点(UTC)
风速5节,风向西转西南
成为
从 29日的 16点(UTC)到 29日的 18点(UTC)
风速3节,风向东南

TAF: EDDK 281100Z 2812/2918 14006KT 9999 BKN045 TEMPO 2904/2911 BKN012 PROB30 TEMPO 2907/2910 4000 RADZ BKN006 BECMG 2908/2911 24005KT BECMG 2916/2918 14003KT

超过4000个机场的气象观测和天气预报(METAR&TAF报告)。

可查询的气象台以黄色和红色小点在地图上表示。

将鼠标移到小点上方,可查看气象台名称。

然后点击查看天气观测和预报。

如需切换地图:点击带黑十字的绿色按钮放大地图;点击带横线的绿色按钮缩小地图;或者点击绿色箭头查看邻近地区的地图。


METAR-TAF: